Terminal Aerodrome Forecast
Issued by NWS

Home | Current Version | Previous Version | Text Only | Print | Product List | Glossary On
Versions: 1 2 3 4 5 6 7 8 9 10 11 12
446
FTUS45 KABQ 171724
TAFGUP
TAF
KGUP 171724Z 1718/1818 VRB03KT P6SM BKN200
     FM172100 05006KT P6SM BKN120
     FM180600 00000KT P6SM OVC080
     FM181600 VRB03KT P6SM SCT100=

USA.gov is the U.S. government's official web portal to all federal, state and local government web resources and services.